Time;durP1;ratioP1;P1;durP2;ratioP2;P2;SDS_P1;SDS_P2;PMS_P1;PMS_P2;Temp;Humidity;BMP_temperature;BMP_pressure;BME280_temperature;BME280_humidity;BME280_pressure;Samples;Min_cycle;Max_cycle;Signal;HPM_P1;HPM_P2
2023/01/05 00:01:35;;;;;;;14.97;10.57;;;6.70;99.90;;;;;;5030214;28;20208;-90
2023/01/05 00:04:01;;;;;;;16.13;11.10;;;6.70;99.90;;;;;;5018267;28;20232;-90
2023/01/05 00:06:27;;;;;;;13.70;10.30;;;6.70;99.90;;;;;;5000963;28;20186;-90
2023/01/05 00:08:53;;;;;;;14.20;10.50;;;6.80;99.90;;;;;;5016792;28;20210;-92
2023/01/05 00:22:50;;;;;;;14.10;10.00;;;6.70;99.90;;;;;;5035173;28;20169;-90
2023/01/05 00:25:21;;;;;;;14.97;10.40;;;6.70;99.90;;;;;;5018718;28;20190;-91
2023/01/05 00:27:50;;;;;;;11.97;10.03;;;6.60;99.90;;;;;;5028622;28;20211;-91
2023/01/05 00:30:19;;;;;;;13.40;10.23;;;6.60;99.90;;;;;;5033717;28;20272;-91
2023/01/05 00:32:45;;;;;;;15.57;10.87;;;6.70;99.90;;;;;;5028866;28;20173;-91
2023/01/05 00:35:13;;;;;;;15.13;10.73;;;6.70;99.90;;;;;;5020970;28;20733;-92
2023/01/05 00:37:39;;;;;;;16.93;11.53;;;6.60;99.90;;;;;;5017080;28;20176;-90
2023/01/05 00:40:06;;;;;;;16.37;11.50;;;6.70;99.90;;;;;;5020417;28;20173;-90
2023/01/05 00:42:32;;;;;;;14.77;11.97;;;6.70;99.90;;;;;;5020308;28;20181;-90
2023/01/05 00:44:58;;;;;;;22.33;13.50;;;6.60;99.90;;;;;;5019822;28;20198;-92
2023/01/05 00:47:24;;;;;;;17.67;12.40;;;6.50;99.90;;;;;;5019844;28;20225;-90
2023/01/05 00:49:50;;;;;;;19.30;12.80;;;6.60;99.90;;;;;;5019794;28;20211;-91
2023/01/05 00:52:15;;;;;;;15.93;12.10;;;6.50;99.90;;;;;;5020082;28;20262;-90
2023/01/05 00:54:41;;;;;;;16.73;12.63;;;6.50;99.90;;;;;;5020996;28;20187;-90
2023/01/05 00:57:12;;;;;;;16.67;12.37;;;6.50;99.90;;;;;;5033891;28;20166;-91
2023/01/05 00:59:38;;;;;;;20.23;13.33;;;6.50;99.90;;;;;;5042083;28;20173;-93
2023/01/05 01:02:04;;;;;;;16.07;12.23;;;6.50;99.90;;;;;;5042220;28;20167;-91
2023/01/05 01:04:31;;;;;;;19.30;12.40;;;6.50;99.90;;;;;;5038419;28;20170;-91
2023/01/05 01:06:57;;;;;;;16.30;12.57;;;6.50;99.90;;;;;;5037297;28;20182;-89
2023/01/05 01:09:23;;;;;;;18.00;12.03;;;6.50;99.90;;;;;;5034309;28;20566;-90
2023/01/05 01:11:49;;;;;;;19.17;13.47;;;6.50;99.90;;;;;;5024038;28;20179;-90
2023/01/05 01:14:15;;;;;;;16.77;12.43;;;6.40;99.90;;;;;;5021839;28;20705;-90
2023/01/05 01:16:41;;;;;;;16.13;12.40;;;6.50;99.90;;;;;;5023126;28;20237;-92
2023/01/05 01:19:13;;;;;;;20.80;13.07;;;6.50;99.90;;;;;;5033406;28;20185;-89
2023/01/05 01:21:39;;;;;;;18.40;12.50;;;6.40;99.90;;;;;;5042858;28;20181;-91
2023/01/05 01:24:05;;;;;;;20.97;13.37;;;6.40;99.90;;;;;;5042932;28;20176;-90
2023/01/05 01:26:31;;;;;;;19.93;13.47;;;6.50;99.90;;;;;;5023734;28;20181;-91
2023/01/05 01:28:58;;;;;;;19.10;12.47;;;6.50;99.90;;;;;;5021028;28;20259;-90
2023/01/05 01:31:23;;;;;;;16.57;12.63;;;6.50;99.90;;;;;;5040760;28;20165;-88
2023/01/05 01:33:49;;;;;;;17.53;12.70;;;6.50;99.90;;;;;;5021283;28;20230;-90
2023/01/05 01:36:15;;;;;;;17.70;12.67;;;6.40;99.90;;;;;;5020380;28;20286;-90
2023/01/05 01:38:41;;;;;;;19.23;12.50;;;6.40;99.90;;;;;;5019257;28;20673;-90
2023/01/05 01:41:13;;;;;;;17.93;12.90;;;6.40;99.90;;;;;;5020131;28;20267;-93
2023/01/05 01:43:51;;;;;;;17.67;13.37;;;6.40;99.90;;;;;;5020051;28;20181;-91
2023/01/05 01:46:19;;;;;;;17.00;12.27;;;6.40;99.90;;;;;;5018654;28;20200;-89
2023/01/05 01:48:53;;;;;;;19.23;13.03;;;6.40;99.90;;;;;;5019159;28;20243;-92
2023/01/05 01:51:27;;;;;;;17.63;12.40;;;6.40;99.90;;;;;;5018527;28;20179;-92
2023/01/05 01:53:57;;;;;;;19.70;12.80;;;6.40;99.90;;;;;;5018656;28;20234;-90
2023/01/05 01:56:28;;;;;;;17.23;12.67;;;6.30;99.90;;;;;;5021736;28;20177;-90
2023/01/05 01:58:54;;;;;;;18.60;12.40;;;6.30;99.90;;;;;;5019011;28;20173;-92
2023/01/05 02:01:23;;;;;;;15.93;12.30;;;6.30;99.90;;;;;;5019216;28;20180;-90
2023/01/05 02:03:49;;;;;;;18.27;13.10;;;6.30;99.90;;;;;;5005172;28;20204;-94
2023/01/05 02:06:16;;;;;;;17.70;12.57;;;6.30;99.90;;;;;;5018711;28;20266;-91
2023/01/05 02:08:42;;;;;;;16.50;12.37;;;6.40;99.90;;;;;;5020478;28;20681;-90
2023/01/05 02:11:45;;;;;;;17.97;12.13;;;6.30;99.90;;;;;;5022247;28;20227;-89
2023/01/05 02:14:33;;;;;;;17.87;11.83;;;6.20;99.90;;;;;;5034948;28;20231;-92
2023/01/05 02:17:37;;;;;;;15.90;11.23;;;6.20;99.90;;;;;;5028508;28;20252;-91
2023/01/05 02:20:37;;;;;;;14.63;10.73;;;6.10;99.90;;;;;;5018276;28;20542;-93
2023/01/05 02:23:21;;;;;;;15.73;11.27;;;6.20;99.90;;;;;;5018149;28;20196;-92
2023/01/05 02:26:06;;;;;;;14.30;10.43;;;6.20;99.90;;;;;;5017963;28;20210;-91
2023/01/05 02:28:46;;;;;;;14.80;10.37;;;6.20;99.90;;;;;;5018718;28;20215;-92
2023/01/05 02:31:46;;;;;;;14.80;10.53;;;6.20;99.90;;;;;;5018558;28;20203;-93
2023/01/05 02:34:20;;;;;;;7.10;6.17;;;6.30;99.90;;;;;;4992194;28;20196;-90
2023/01/05 02:36:49;;;;;;;9.90;7.27;;;6.10;99.90;;;;;;5026239;28;20259;-91
2023/01/05 02:39:27;;;;;;;10.47;8.83;;;6.10;99.90;;;;;;5034192;28;20183;-91
2023/01/05 02:42:03;;;;;;;12.10;9.40;;;6.20;99.90;;;;;;5049813;28;20175;-90
2023/01/05 02:44:31;;;;;;;13.10;10.33;;;6.10;99.90;;;;;;5032235;28;20260;-92
2023/01/05 02:47:04;;;;;;;14.63;11.20;;;6.10;99.90;;;;;;5023451;28;20185;-91
2023/01/05 02:49:36;;;;;;;14.27;10.77;;;6.10;99.90;;;;;;5021339;28;20204;-91
2023/01/05 02:52:04;;;;;;;18.90;10.87;;;6.10;99.90;;;;;;5038496;28;20182;-91
2023/01/05 02:54:40;;;;;;;17.03;11.40;;;6.00;99.90;;;;;;5033667;28;20204;-91
2023/01/05 02:57:12;;;;;;;15.37;10.30;;;6.00;99.90;;;;;;5026306;28;20620;-90
2023/01/05 02:59:46;;;;;;;17.10;12.07;;;6.00;99.90;;;;;;5020366;28;20180;-91
2023/01/05 03:02:19;;;;;;;15.10;10.73;;;5.90;99.90;;;;;;5054018;28;20214;-92
2023/01/05 03:04:47;;;;;;;15.27;11.20;;;6.00;99.90;;;;;;5019683;28;20177;-90
2023/01/05 03:07:17;;;;;;;18.47;11.07;;;6.00;99.90;;;;;;5017881;28;20643;-94
2023/01/05 03:09:44;;;;;;;13.47;10.70;;;5.90;99.90;;;;;;5025852;28;20208;-92
2023/01/05 03:15:21;;;;;;;13.07;10.20;;;5.90;99.90;;;;;;5052812;28;20317;-91
2023/01/05 03:17:54;;;;;;;15.13;10.57;;;5.90;99.90;;;;;;5019179;28;20292;-90
2023/01/05 03:20:25;;;;;;;12.17;9.27;;;5.90;99.90;;;;;;5018665;28;20167;-91
2023/01/05 03:37:38;;;;;;;7.93;6.33;;;6.00;99.90;;;;;;5035642;28;20199;-91
2023/01/05 03:40:10;;;;;;;8.63;7.73;;;6.10;99.90;;;;;;5017892;28;20597;-94
2023/01/05 03:42:37;;;;;;;8.93;7.37;;;6.00;99.90;;;;;;5017549;28;20226;-92
2023/01/05 03:45:05;;;;;;;7.37;6.57;;;6.00;99.90;;;;;;5017833;28;20182;-90
2023/01/05 03:47:31;;;;;;;7.77;6.93;;;6.00;99.90;;;;;;5017877;28;20182;-90
2023/01/05 03:49:57;;;;;;;10.20;6.80;;;6.00;99.90;;;;;;5017486;28;20218;-90
2023/01/05 03:52:23;;;;;;;8.60;7.33;;;6.10;99.90;;;;;;5017242;28;20182;-91
2023/01/05 03:54:49;;;;;;;7.93;6.70;;;6.10;99.90;;;;;;5030741;28;20187;-91
2023/01/05 03:57:14;;;;;;;11.30;7.40;;;6.00;99.90;;;;;;5028657;28;20205;-92
2023/01/05 03:59:40;;;;;;;8.63;7.03;;;6.00;99.90;;;;;;5019880;28;20185;-92
2023/01/05 04:02:06;;;;;;;9.87;7.60;;;6.10;99.90;;;;;;5017030;28;20186;-90
2023/01/05 04:04:32;;;;;;;12.37;8.50;;;6.20;99.90;;;;;;5035148;28;20656;-92
2023/01/05 04:06:58;;;;;;;10.80;8.60;;;6.10;99.90;;;;;;5017212;28;20177;-93
2023/01/05 04:09:24;;;;;;;8.90;7.37;;;6.10;99.90;;;;;;5017154;28;20200;-93
2023/01/05 04:11:49;;;;;;;13.03;9.53;;;6.10;99.90;;;;;;5017107;28;20188;-90
2023/01/05 04:14:15;;;;;;;12.03;9.20;;;6.10;99.90;;;;;;5020622;28;20216;-91
2023/01/05 04:16:41;;;;;;;12.17;8.97;;;6.10;99.90;;;;;;5028302;28;20252;-90
2023/01/05 04:19:07;;;;;;;11.00;9.37;;;6.00;99.90;;;;;;5042010;28;20174;-91
2023/01/05 04:21:32;;;;;;;11.20;8.13;;;6.00;99.90;;;;;;5044306;28;20191;-90
2023/01/05 04:23:58;;;;;;;13.30;8.80;;;6.00;99.90;;;;;;5044608;28;20157;-91
2023/01/05 04:26:24;;;;;;;10.97;8.97;;;5.90;99.90;;;;;;5027656;28;20270;-90
2023/01/05 04:28:50;;;;;;;9.67;8.07;;;5.90;99.90;;;;;;5027126;28;20268;-91
2023/01/05 04:31:16;;;;;;;11.03;8.43;;;5.80;99.90;;;;;;5036018;28;20162;-90
2023/01/05 04:33:44;;;;;;;12.30;9.47;;;5.80;99.90;;;;;;5057966;28;20179;-92
2023/01/05 04:36:10;;;;;;;10.53;8.27;;;5.70;99.90;;;;;;5021676;28;20180;-91
2023/01/05 04:38:36;;;;;;;10.63;7.50;;;5.70;99.90;;;;;;5020891;28;20220;-93
2023/01/05 04:41:02;;;;;;;9.03;6.83;;;5.70;99.90;;;;;;5020880;28;20180;-91
2023/01/05 04:43:28;;;;;;;6.80;5.97;;;5.70;99.90;;;;;;5020837;28;20208;-91
2023/01/05 04:45:54;;;;;;;7.47;6.00;;;5.70;99.90;;;;;;5038773;28;20252;-92
2023/01/05 04:48:20;;;;;;;8.57;5.70;;;5.70;99.90;;;;;;5020287;28;20212;-93
2023/01/05 04:50:52;;;;;;;8.47;5.70;;;5.60;99.90;;;;;;5022398;28;20247;-93
2023/01/05 04:53:18;;;;;;;8.23;5.53;;;5.60;99.90;;;;;;5023221;28;20174;-92
2023/01/05 04:55:45;;;;;;;8.80;5.93;;;5.70;99.90;;;;;;5020559;28;20177;-91
2023/01/05 04:58:10;;;;;;;6.23;5.50;;;5.70;99.90;;;;;;5024942;28;20174;-93
2023/01/05 05:00:36;;;;;;;6.20;5.60;;;5.70;99.90;;;;;;5047376;28;20182;-90
2023/01/05 05:03:02;;;;;;;6.20;5.50;;;5.60;99.90;;;;;;5080328;28;20171;-90
2023/01/05 05:05:28;;;;;;;7.00;5.10;;;5.70;99.90;;;;;;5073535;28;20181;-92
2023/01/05 05:07:54;;;;;;;7.60;6.00;;;5.60;99.90;;;;;;5063090;28;20258;-89
2023/01/05 05:10:20;;;;;;;8.60;6.57;;;5.60;99.90;;;;;;5061445;28;20190;-91
2023/01/05 05:12:45;;;;;;;8.27;6.43;;;5.50;99.90;;;;;;5059787;28;20237;-91
2023/01/05 05:15:11;;;;;;;8.83;7.80;;;5.60;99.90;;;;;;5059019;28;20236;-92
2023/01/05 05:17:37;;;;;;;9.53;6.87;;;5.60;99.90;;;;;;5060433;28;20273;-94
2023/01/05 05:20:04;;;;;;;9.17;7.63;;;5.60;99.90;;;;;;5059364;28;20187;-92
2023/01/05 05:22:30;;;;;;;11.30;7.03;;;5.60;99.90;;;;;;5059491;28;20667;-91
2023/01/05 05:24:56;;;;;;;8.73;7.77;;;5.60;99.90;;;;;;5058005;28;20211;-93
2023/01/05 05:27:22;;;;;;;10.27;8.43;;;5.60;99.90;;;;;;5059336;28;20543;-91
2023/01/05 05:29:47;;;;;;;10.00;8.30;;;5.60;99.90;;;;;;5059396;28;20262;-92
2023/01/05 05:32:13;;;;;;;12.30;8.73;;;5.50;99.90;;;;;;5059055;28;20212;-91
2023/01/05 05:34:39;;;;;;;10.80;9.03;;;5.50;99.90;;;;;;5059317;28;20188;-92
2023/01/05 05:37:05;;;;;;;13.87;8.97;;;5.50;99.90;;;;;;5065133;28;20528;-88
2023/01/05 05:39:30;;;;;;;14.77;9.57;;;5.50;99.90;;;;;;5075022;28;20211;-91
2023/01/05 05:41:56;;;;;;;12.97;9.27;;;5.50;99.90;;;;;;5063069;28;20179;-90
2023/01/05 05:44:22;;;;;;;14.00;9.77;;;5.40;99.90;;;;;;5060810;28;20296;-90
2023/01/05 05:46:49;;;;;;;14.80;10.20;;;5.40;99.90;;;;;;5069053;28;20168;-89
2023/01/05 05:49:15;;;;;;;13.53;10.43;;;5.40;99.90;;;;;;5070742;28;20211;-90
2023/01/05 05:51:41;;;;;;;16.97;10.93;;;5.30;99.90;;;;;;5076736;28;20180;-87
2023/01/05 05:54:07;;;;;;;14.73;10.70;;;5.20;99.90;;;;;;5076435;28;20183;-90
2023/01/05 05:56:33;;;;;;;20.33;11.80;;;5.30;99.90;;;;;;5061762;28;20176;-91
2023/01/05 05:58:59;;;;;;;18.50;10.87;;;5.20;99.90;;;;;;5064703;28;20181;-91
2023/01/05 06:01:24;;;;;;;18.87;11.27;;;5.30;99.90;;;;;;5076757;28;20222;-90
2023/01/05 06:03:50;;;;;;;16.57;10.63;;;5.20;99.90;;;;;;5072284;28;20196;-88
2023/01/05 06:06:16;;;;;;;14.87;10.63;;;5.30;99.90;;;;;;5078469;28;20172;-90
2023/01/05 06:08:42;;;;;;;16.50;11.17;;;5.30;99.90;;;;;;5065610;28;20273;-90
2023/01/05 06:11:08;;;;;;;16.33;11.33;;;5.40;99.90;;;;;;5063390;28;20179;-88
2023/01/05 06:13:33;;;;;;;15.30;10.67;;;5.40;99.90;;;;;;5076841;28;20263;-90
2023/01/05 06:15:59;;;;;;;16.23;10.87;;;5.50;99.90;;;;;;5076263;28;20255;-90
2023/01/05 06:18:27;;;;;;;17.73;10.47;;;5.50;99.90;;;;;;5058251;28;20276;-90
2023/01/05 06:20:53;;;;;;;12.23;9.50;;;5.50;99.90;;;;;;5057713;28;20242;-92
2023/01/05 06:23:19;;;;;;;12.07;9.27;;;5.50;99.90;;;;;;5058468;28;20175;-92
2023/01/05 06:25:45;;;;;;;12.20;9.07;;;5.50;99.90;;;;;;5058832;28;20179;-92
2023/01/05 06:28:11;;;;;;;7.53;6.73;;;5.50;99.90;;;;;;5058653;28;20205;-92
2023/01/05 06:30:37;;;;;;;9.47;7.17;;;5.50;99.90;;;;;;5057245;28;20227;-93
2023/01/05 06:33:03;;;;;;;8.53;6.50;;;5.40;99.90;;;;;;5041189;28;20184;-91
2023/01/05 06:35:29;;;;;;;10.50;7.13;;;5.40;99.90;;;;;;5057606;28;20186;-90
2023/01/05 06:37:54;;;;;;;7.90;6.43;;;5.30;99.90;;;;;;5058372;28;20274;-93
2023/01/05 06:40:22;;;;;;;7.93;6.37;;;5.30;99.90;;;;;;5060578;28;20179;-93
2023/01/05 06:42:48;;;;;;;8.53;6.47;;;5.40;99.90;;;;;;5060440;28;20179;-93
2023/01/05 06:45:15;;;;;;;6.43;5.83;;;5.50;99.90;;;;;;5058202;28;20189;-92
2023/01/05 06:47:41;;;;;;;9.67;6.10;;;5.50;99.90;;;;;;5058100;28;20242;-92
2023/01/05 06:50:08;;;;;;;8.77;6.77;;;5.60;99.90;;;;;;5059738;28;20219;-91
2023/01/05 06:52:35;;;;;;;7.40;5.73;;;5.60;99.90;;;;;;5076728;28;20182;-90
2023/01/05 06:55:03;;;;;;;11.13;6.30;;;5.70;99.90;;;;;;5081062;28;20175;-90
2023/01/05 06:57:29;;;;;;;8.53;5.53;;;5.80;99.90;;;;;;5080370;28;20216;-90
2023/01/05 06:59:54;;;;;;;7.93;5.87;;;5.80;99.90;;;;;;5063231;28;20176;-91
2023/01/05 07:02:20;;;;;;;8.53;6.03;;;5.80;99.90;;;;;;5059765;28;20175;-91
2023/01/05 07:04:46;;;;;;;7.37;5.93;;;5.90;99.90;;;;;;5059232;28;20262;-92
2023/01/05 07:07:13;;;;;;;6.00;5.20;;;5.90;99.90;;;;;;5057263;28;20321;-91
2023/01/05 07:09:39;;;;;;;6.67;6.03;;;5.90;99.90;;;;;;5057346;28;20571;-88
2023/01/05 07:12:06;;;;;;;6.70;5.30;;;6.00;99.90;;;;;;5057647;28;20635;-92
2023/01/05 07:14:32;;;;;;;6.27;5.30;;;6.10;99.90;;;;;;5057390;28;20233;-91
2023/01/05 07:16:57;;;;;;;5.40;5.00;;;6.10;99.90;;;;;;5057933;28;20523;-89
2023/01/05 07:19:23;;;;;;;6.00;5.40;;;6.20;99.90;;;;;;5057943;28;20277;-90
2023/01/05 07:21:52;;;;;;;5.63;4.80;;;6.20;99.90;;;;;;5058929;28;20172;-89
2023/01/05 07:24:18;;;;;;;5.63;4.80;;;6.30;99.90;;;;;;5068809;28;20179;-89
2023/01/05 07:26:44;;;;;;;7.07;5.50;;;6.30;99.90;;;;;;5077699;28;20153;-90
2023/01/05 07:29:13;;;;;;;7.07;5.30;;;6.40;99.90;;;;;;5063143;28;20213;-89
2023/01/05 07:31:38;;;;;;;8.17;6.13;;;6.40;99.90;;;;;;5058655;28;20198;-91
2023/01/05 07:34:08;;;;;;;9.27;5.87;;;6.40;99.90;;;;;;5045066;28;20182;-91
2023/01/05 07:36:34;;;;;;;9.27;5.70;;;6.40;99.90;;;;;;5043314;28;20184;-91
2023/01/05 07:39:03;;;;;;;7.00;5.30;;;6.50;99.90;;;;;;5040968;28;20175;-90
2023/01/05 07:41:28;;;;;;;7.90;5.77;;;6.50;99.90;;;;;;5053746;28;20185;-89
2023/01/05 07:43:55;;;;;;;7.73;5.57;;;6.50;99.90;;;;;;5055125;28;20721;-89
2023/01/05 07:46:21;;;;;;;11.00;6.60;;;6.50;99.90;;;;;;5041119;28;20176;-89
2023/01/05 07:48:46;;;;;;;7.90;6.03;;;6.50;99.90;;;;;;5055043;28;20276;-90
2023/01/05 07:51:12;;;;;;;8.97;5.93;;;6.50;99.90;;;;;;5052831;28;20185;-92
2023/01/05 07:53:38;;;;;;;6.30;5.60;;;6.50;99.90;;;;;;5041944;28;20187;-90
2023/01/05 07:56:05;;;;;;;8.77;5.80;;;6.50;99.90;;;;;;5040888;28;20259;-90
2023/01/05 07:58:34;;;;;;;6.97;5.07;;;6.50;99.90;;;;;;5040487;28;20978;-90
2023/01/05 08:01:05;;;;;;;6.30;5.50;;;6.50;99.90;;;;;;5040574;28;20177;-90
2023/01/05 08:03:32;;;;;;;9.30;5.30;;;6.60;99.90;;;;;;5040262;28;20181;-91
2023/01/05 08:06:02;;;;;;;7.13;4.93;;;6.60;99.90;;;;;;5040230;28;20189;-89
2023/01/05 08:08:28;;;;;;;5.50;4.90;;;6.60;99.90;;;;;;5040220;28;20268;-91
2023/01/05 08:10:53;;;;;;;5.80;5.10;;;6.60;99.90;;;;;;5040169;28;20211;-90
2023/01/05 08:16:04;;;;;;;5.63;4.83;;;6.70;99.90;;;;;;5088850;28;20241;-91
2023/01/05 08:18:30;;;;;;;6.43;5.43;;;6.70;99.90;;;;;;5072510;28;20206;-92
2023/01/05 08:20:58;;;;;;;7.23;5.30;;;6.70;99.90;;;;;;5060170;28;20178;-92
2023/01/05 08:23:25;;;;;;;11.70;5.70;;;6.70;99.90;;;;;;5060332;28;20182;-91
2023/01/05 08:25:51;;;;;;;5.43;4.90;;;6.80;99.90;;;;;;5063161;28;20510;-92
2023/01/05 08:28:17;;;;;;;5.23;4.73;;;6.90;99.90;;;;;;5060209;28;20661;-91
2023/01/05 08:30:42;;;;;;;6.87;5.17;;;7.00;99.90;;;;;;5060299;28;20253;-92
2023/01/05 08:33:09;;;;;;;4.90;4.50;;;7.00;99.90;;;;;;5060401;28;20247;-90
2023/01/05 08:35:39;;;;;;;6.13;4.70;;;7.00;99.90;;;;;;5059549;28;20182;-89
2023/01/05 08:38:05;;;;;;;6.03;4.93;;;7.10;99.90;;;;;;5059429;28;20174;-92
2023/01/05 08:40:31;;;;;;;4.77;4.37;;;7.20;99.90;;;;;;5077999;28;20185;-89
2023/01/05 08:42:57;;;;;;;4.73;4.33;;;7.30;99.90;;;;;;5061337;28;20260;-90
2023/01/05 08:45:23;;;;;;;4.80;4.37;;;7.40;99.90;;;;;;5077549;28;20193;-89
2023/01/05 08:47:50;;;;;;;4.53;4.23;;;7.50;99.90;;;;;;5083193;28;20204;-89
2023/01/05 08:50:16;;;;;;;5.10;4.60;;;7.60;99.90;;;;;;5076943;28;20192;-90
2023/01/05 08:52:42;;;;;;;4.80;4.27;;;7.70;99.90;;;;;;5062311;28;20252;-89
2023/01/05 08:55:08;;;;;;;6.47;4.90;;;7.90;99.90;;;;;;5060979;28;20183;-90
2023/01/05 08:57:34;;;;;;;8.47;5.23;;;8.00;99.90;;;;;;5068684;28;20528;-91
2023/01/05 09:00:00;;;;;;;7.30;5.50;;;8.10;99.90;;;;;;5064099;28;20175;-90
2023/01/05 09:02:25;;;;;;;7.17;6.00;;;8.20;99.90;;;;;;5060915;28;20243;-89
2023/01/05 09:04:52;;;;;;;8.77;6.27;;;8.30;99.90;;;;;;5060506;28;20519;-89
2023/01/05 09:07:18;;;;;;;6.07;5.33;;;8.40;99.90;;;;;;5072595;28;20181;-92
2023/01/05 09:09:43;;;;;;;9.57;5.70;;;8.40;99.90;;;;;;5097932;28;20212;-92
2023/01/05 09:12:10;;;;;;;6.17;5.57;;;8.50;99.90;;;;;;5070116;28;20193;-91
2023/01/05 09:14:35;;;;;;;6.97;5.67;;;8.60;99.90;;;;;;5056215;28;20233;-92
2023/01/05 09:17:01;;;;;;;5.97;5.37;;;8.70;99.90;;;;;;5047224;28;20176;-90
2023/01/05 09:19:27;;;;;;;6.53;5.93;;;8.80;99.90;;;;;;5045962;28;20191;-88
2023/01/05 09:21:53;;;;;;;6.90;5.67;;;8.80;99.90;;;;;;5045238;28;20175;-89
2023/01/05 09:24:19;;;;;;;7.80;5.93;;;8.90;99.90;;;;;;5051149;28;20188;-89
2023/01/05 09:26:45;;;;;;;6.87;5.70;;;9.00;99.90;;;;;;5064734;28;20207;-89
2023/01/05 09:29:11;;;;;;;6.57;5.77;;;9.00;99.90;;;;;;5058499;28;20286;-91
2023/01/05 09:31:39;;;;;;;7.47;5.83;;;9.10;99.90;;;;;;5059107;28;20187;-91
2023/01/05 09:34:05;;;;;;;7.10;6.37;;;9.10;99.90;;;;;;5042771;28;20718;-91
2023/01/05 09:36:31;;;;;;;7.80;6.53;;;9.20;99.90;;;;;;5057287;28;20204;-90
2023/01/05 09:38:57;;;;;;;6.90;6.20;;;9.20;99.90;;;;;;5039827;28;20632;-91
2023/01/05 09:41:34;;;;;;;7.33;5.83;;;9.30;99.90;;;;;;5039624;28;20201;-91
2023/01/05 09:44:31;;;;;;;7.23;5.53;;;9.40;99.90;;;;;;5039311;28;20241;-91
2023/01/05 09:47:02;;;;;;;5.43;4.93;;;9.50;99.90;;;;;;5039292;28;20180;-91
2023/01/05 09:49:29;;;;;;;4.73;4.20;;;9.50;99.90;;;;;;5038795;28;20268;-91
2023/01/05 09:52:01;;;;;;;5.30;4.23;;;9.60;99.90;;;;;;5056944;28;20177;-92
2023/01/05 09:54:31;;;;;;;5.60;4.20;;;9.70;99.90;;;;;;5038698;28;20203;-89
2023/01/05 09:56:58;;;;;;;5.47;4.77;;;9.70;99.90;;;;;;5039413;28;20179;-90
2023/01/05 09:59:37;;;;;;;4.97;4.47;;;9.80;99.90;;;;;;5038636;28;20189;-94
2023/01/05 10:02:18;;;;;;;6.40;4.67;;;9.80;99.90;;;;;;5038859;28;20185;-91
2023/01/05 10:04:45;;;;;;;6.53;4.43;;;9.90;99.90;;;;;;5038957;28;20165;-92
2023/01/05 10:07:28;;;;;;;4.17;3.83;;;10.00;99.90;;;;;;5039029;28;20183;-90
2023/01/05 10:09:59;;;;;;;5.20;3.60;;;10.10;99.90;;;;;;5039678;28;20584;-92
2023/01/05 10:15:22;;;;;;;3.70;3.40;;;10.30;99.90;;;;;;5070346;28;20293;-93
2023/01/05 10:17:48;;;;;;;4.50;3.47;;;10.30;99.90;;;;;;5059218;28;20236;-92
2023/01/05 10:20:17;;;;;;;5.80;4.33;;;10.30;99.90;;;;;;5077020;28;20172;-91
2023/01/05 10:22:57;;;;;;;4.07;3.77;;;10.40;99.90;;;;;;5077611;28;20174;-91
2023/01/05 10:25:43;;;;;;;6.37;4.10;;;10.40;99.90;;;;;;5062058;28;20163;-91
2023/01/05 10:28:14;;;;;;;6.13;4.43;;;10.40;99.90;;;;;;5075218;28;20254;-92
2023/01/05 10:31:00;;;;;;;9.67;5.80;;;10.40;99.90;;;;;;5069928;28;20181;-92
2023/01/05 10:33:47;;;;;;;8.10;7.10;;;10.50;99.90;;;;;;5080549;28;20179;-89
2023/01/05 10:36:21;;;;;;;7.33;6.60;;;10.60;99.90;;;;;;5081302;28;20246;-89
2023/01/05 10:39:12;;;;;;;9.87;7.00;;;10.70;99.90;;;;;;5078238;28;20206;-91
2023/01/05 10:41:54;;;;;;;10.40;7.07;;;10.80;99.90;;;;;;5061548;28;20198;-92
2023/01/05 10:44:42;;;;;;;9.87;8.50;;;10.90;99.90;;;;;;5064253;28;20254;-91
2023/01/05 10:47:09;;;;;;;10.43;7.10;;;11.00;99.90;;;;;;5063942;28;20268;-90
2023/01/05 10:49:37;;;;;;;10.27;8.10;;;11.10;99.90;;;;;;5077534;28;20221;-89
2023/01/05 10:52:03;;;;;;;13.53;7.57;;;11.00;99.90;;;;;;5078435;28;20166;-92
2023/01/05 10:54:37;;;;;;;8.13;7.03;;;11.10;99.90;;;;;;5061400;28;20202;-92
2023/01/05 10:57:39;;;;;;;10.73;7.80;;;11.00;99.90;;;;;;5059303;28;20178;-91
2023/01/05 11:00:18;;;;;;;8.50;7.60;;;10.90;99.90;;;;;;4977814;28;20178;-89
2023/01/05 11:02:59;;;;;;;11.73;7.80;;;10.90;99.90;;;;;;4985355;28;20182;-90
2023/01/05 11:05:34;;;;;;;9.07;8.10;;;10.90;99.90;;;;;;5006480;28;20267;-91
2023/01/05 11:08:02;;;;;;;10.33;8.07;;;10.90;99.90;;;;;;4980612;28;20219;-92
2023/01/05 11:10:33;;;;;;;13.70;8.30;;;10.90;99.90;;;;;;4991576;28;20189;-92
2023/01/05 11:13:19;;;;;;;17.13;9.00;;;10.90;99.90;;;;;;4992988;28;20182;-92
2023/01/05 11:15:53;;;;;;;15.30;9.33;;;10.90;99.90;;;;;;4982052;28;20233;-90
2023/01/05 11:18:53;;;;;;;12.27;8.77;;;11.00;99.90;;;;;;4980705;28;20191;-89
2023/01/05 11:21:21;;;;;;;13.17;9.07;;;11.10;99.90;;;;;;4979382;28;20177;-91
2023/01/05 11:23:53;;;;;;;11.40;7.80;;;11.20;99.90;;;;;;4978070;28;20544;-91
2023/01/05 11:26:23;;;;;;;9.57;7.00;;;11.30;99.90;;;;;;4962579;28;20193;-92
2023/01/05 11:29:08;;;;;;;8.63;7.03;;;11.30;99.90;;;;;;4959867;28;20203;-91
2023/01/05 11:31:41;;;;;;;8.43;7.37;;;11.30;99.90;;;;;;4961123;28;20186;-91
2023/01/05 11:34:28;;;;;;;9.97;7.77;;;11.40;99.90;;;;;;5001583;28;20276;-93
2023/01/05 11:37:10;;;;;;;8.03;6.30;;;11.60;99.90;;;;;;5038938;28;20207;-89
2023/01/05 11:39:45;;;;;;;7.43;6.43;;;11.70;99.90;;;;;;5037337;28;20183;-91
2023/01/05 11:42:34;;;;;;;6.47;5.87;;;11.80;99.90;;;;;;5037624;28;20171;-91
2023/01/05 11:45:02;;;;;;;8.17;6.00;;;11.80;99.90;;;;;;5037891;28;20176;-94
2023/01/05 11:47:44;;;;;;;6.57;5.97;;;11.80;99.90;;;;;;5037842;28;20180;-88
2023/01/05 11:50:13;;;;;;;7.07;5.87;;;11.80;99.90;;;;;;5037034;28;20200;-92
2023/01/05 11:52:43;;;;;;;7.53;5.87;;;11.80;99.90;;;;;;5036746;28;20643;-90
2023/01/05 11:55:34;;;;;;;8.57;6.57;;;11.80;99.90;;;;;;5038277;28;20176;-91
2023/01/05 11:58:44;;;;;;;10.60;7.13;;;11.80;99.90;;;;;;5046729;28;20172;-91
2023/01/05 12:01:28;;;;;;;9.13;7.27;;;11.80;99.90;;;;;;5019188;28;20594;-93
2023/01/05 12:04:13;;;;;;;8.43;6.83;;;11.70;99.90;;;;;;5038292;28;20179;-90
2023/01/05 12:07:03;;;;;;;6.83;6.13;;;11.70;99.90;;;;;;5045880;28;20163;-91
2023/01/05 12:09:58;;;;;;;8.60;6.60;;;11.70;99.90;;;;;;5050198;28;20295;-91
2023/01/05 12:12:29;;;;;;;8.13;6.13;;;11.70;99.90;;;;;;5038364;28;20640;-92
2023/01/05 12:15:40;;;;;;;7.33;6.30;;;11.80;99.90;;;;;;5043210;28;20657;-91
2023/01/05 12:18:43;;;;;;;7.47;6.40;;;11.80;99.90;;;;;;5033421;28;20194;-91
2023/01/05 12:21:24;;;;;;;8.47;6.77;;;11.80;99.90;;;;;;5025131;28;20180;-90
2023/01/05 12:24:11;;;;;;;7.40;6.70;;;11.80;99.90;;;;;;5058981;28;20172;-91
2023/01/05 12:26:43;;;;;;;9.63;6.57;;;11.90;99.90;;;;;;5060355;28;20175;-89
2023/01/05 12:29:38;;;;;;;10.47;5.63;;;11.90;99.90;;;;;;5059722;28;20227;-92
2023/01/05 12:32:19;;;;;;;7.47;6.50;;;11.90;99.90;;;;;;5053329;28;20192;-91
2023/01/05 12:34:57;;;;;;;6.43;5.73;;;11.90;99.90;;;;;;5041609;28;20176;-91
2023/01/05 12:37:41;;;;;;;8.63;6.80;;;11.90;99.90;;;;;;5045833;28;20180;-93
2023/01/05 12:40:48;;;;;;;8.57;7.10;;;11.80;99.90;;;;;;5041745;28;20542;-94
2023/01/05 12:43:31;;;;;;;9.63;6.80;;;11.80;99.90;;;;;;5050468;28;20232;-92
2023/01/05 12:46:06;;;;;;;7.20;6.27;;;11.80;99.90;;;;;;5047325;28;20187;-92
2023/01/05 12:48:43;;;;;;;9.63;6.67;;;11.80;99.90;;;;;;5047340;28;20226;-91
2023/01/05 12:51:35;;;;;;;8.87;6.30;;;11.80;99.90;;;;;;5059205;28;20177;-91
2023/01/05 12:54:07;;;;;;;9.57;7.20;;;11.80;99.90;;;;;;5054175;28;20178;-91
2023/01/05 12:56:39;;;;;;;10.13;7.03;;;11.80;99.90;;;;;;5050681;28;20176;-90
2023/01/05 12:59:27;;;;;;;8.70;6.77;;;11.80;99.90;;;;;;5050462;28;20180;-93
2023/01/05 13:02:02;;;;;;;9.00;6.87;;;11.70;99.90;;;;;;5079930;28;20155;-91
2023/01/05 13:04:44;;;;;;;8.97;7.00;;;11.70;99.90;;;;;;5056547;28;20270;-91
2023/01/05 13:07:48;;;;;;;10.67;7.30;;;11.80;99.90;;;;;;5060964;28;20175;-90
2023/01/05 13:10:27;;;;;;;8.20;7.40;;;11.80;99.90;;;;;;5055421;28;20302;-91
2023/01/05 13:12:57;;;;;;;9.57;7.30;;;11.80;99.90;;;;;;5042718;28;20178;-92
2023/01/05 13:15:35;;;;;;;11.90;8.27;;;11.80;99.90;;;;;;5041385;28;20234;-92
2023/01/05 13:18:04;;;;;;;9.90;7.87;;;11.80;99.90;;;;;;5040406;28;20175;-90
2023/01/05 13:20:52;;;;;;;9.77;7.70;;;11.80;99.90;;;;;;5039485;28;20180;-88
2023/01/05 13:23:27;;;;;;;8.63;7.73;;;11.80;99.90;;;;;;5039788;28;20164;-89
2023/01/05 13:26:18;;;;;;;14.73;9.57;;;11.80;99.90;;;;;;5062739;28;20174;-89
2023/01/05 13:28:54;;;;;;;12.00;7.57;;;11.80;99.90;;;;;;5050392;28;20206;-90
2023/01/05 13:31:38;;;;;;;11.63;8.60;;;11.80;99.90;;;;;;5041170;28;20536;-91
2023/01/05 13:34:16;;;;;;;10.40;7.60;;;11.70;99.90;;;;;;5041491;28;20180;-91
2023/01/05 13:37:19;;;;;;;13.10;7.87;;;11.70;99.90;;;;;;5047366;28;20171;-89
2023/01/05 13:40:23;;;;;;;11.70;7.83;;;11.70;99.90;;;;;;5049996;28;20202;-93
2023/01/05 13:42:55;;;;;;;10.33;8.10;;;11.70;99.90;;;;;;5040455;28;20163;-91
2023/01/05 13:46:01;;;;;;;15.07;8.70;;;11.80;99.90;;;;;;5040372;28;20181;-90